Aurora, Minnesota
Current Conditions -  °F | °C
As of 8:11 AM on Monday 20 Oct 2014 (Local Time) from KEVM Reporting Station
Broken Clouds Broken Clouds  
Wind Chill: 39°   Ceiling: 3100
Heat Index: 43°   Visibility: 10mi
Dew Point: 41°   Wind: 6mph
Humidity: 93%   Direction: 250°WSW
Pressure: 29.95"   Gusts: NA
Location:  47.53°N, 92.24°W
Report Text: KEVM 201311Z AUTO 25005KT 10SM SCT020 SCT025 BKN031 06/05 A2995 RMK AO2
Loading
Personal Weather Stations






























Interactive Weather Map
Tropical Storm Tracking
New forecast layout! Learn more

10-Day Weather Forecast

Advertisements
Track Severe Weather on mobile